sensor_id;sensor_type;location;lat;lon;timestamp;P1;durP1;ratioP1;P2;durP2;ratioP2
41685;SDS011;27370;42.764;23.432;2022-11-10T00:01:36;67.50;;;43.35;;
41685;SDS011;27370;42.764;23.432;2022-11-10T00:04:19;64.15;;;41.88;;
41685;SDS011;27370;42.764;23.432;2022-11-10T00:07:04;66.50;;;40.92;;
41685;SDS011;27370;42.764;23.432;2022-11-10T00:09:47;67.75;;;42.78;;
41685;SDS011;27370;42.764;23.432;2022-11-10T00:12:32;68.10;;;42.45;;
41685;SDS011;27370;42.764;23.432;2022-11-10T00:15:16;75.13;;;45.60;;
41685;SDS011;27370;42.764;23.432;2022-11-10T00:18:19;65.50;;;42.17;;
41685;SDS011;27370;42.764;23.432;2022-11-10T00:21:04;75.15;;;44.00;;
41685;SDS011;27370;42.764;23.432;2022-11-10T00:23:50;65.18;;;42.60;;
41685;SDS011;27370;42.764;23.432;2022-11-10T00:26:34;63.58;;;43.70;;
41685;SDS011;27370;42.764;23.432;2022-11-10T00:29:17;66.50;;;44.33;;
41685;SDS011;27370;42.764;23.432;2022-11-10T00:32:02;69.50;;;46.45;;
41685;SDS011;27370;42.764;23.432;2022-11-10T00:34:46;69.30;;;45.38;;
41685;SDS011;27370;42.764;23.432;2022-11-10T00:37:30;72.90;;;44.40;;
41685;SDS011;27370;42.764;23.432;2022-11-10T00:40:14;67.47;;;43.05;;
41685;SDS011;27370;42.764;23.432;2022-11-10T00:42:58;73.78;;;45.40;;
41685;SDS011;27370;42.764;23.432;2022-11-10T00:45:42;68.45;;;43.40;;
41685;SDS011;27370;42.764;23.432;2022-11-10T00:48:27;69.47;;;43.67;;
41685;SDS011;27370;42.764;23.432;2022-11-10T00:51:24;76.93;;;47.75;;
41685;SDS011;27370;42.764;23.432;2022-11-10T00:54:10;79.57;;;47.58;;
41685;SDS011;27370;42.764;23.432;2022-11-10T00:56:53;75.22;;;45.33;;
41685;SDS011;27370;42.764;23.432;2022-11-10T00:59:37;77.63;;;48.08;;
41685;SDS011;27370;42.764;23.432;2022-11-10T01:02:21;84.75;;;49.58;;
41685;SDS011;27370;42.764;23.432;2022-11-10T01:05:05;87.25;;;51.08;;
41685;SDS011;27370;42.764;23.432;2022-11-10T01:07:50;88.35;;;54.47;;
41685;SDS011;27370;42.764;23.432;2022-11-10T01:10:34;88.82;;;54.33;;
41685;SDS011;27370;42.764;23.432;2022-11-10T01:13:18;85.82;;;54.03;;
41685;SDS011;27370;42.764;23.432;2022-11-10T01:16:09;84.93;;;52.33;;
41685;SDS011;27370;42.764;23.432;2022-11-10T01:18:59;104.07;;;65.03;;
41685;SDS011;27370;42.764;23.432;2022-11-10T01:21:44;117.80;;;76.88;;
41685;SDS011;27370;42.764;23.432;2022-11-10T01:24:28;113.63;;;73.18;;
41685;SDS011;27370;42.764;23.432;2022-11-10T01:27:12;112.75;;;70.82;;
41685;SDS011;27370;42.764;23.432;2022-11-10T01:29:56;114.07;;;74.30;;
41685;SDS011;27370;42.764;23.432;2022-11-10T01:32:40;105.65;;;68.90;;
41685;SDS011;27370;42.764;23.432;2022-11-10T01:35:24;97.97;;;64.55;;
41685;SDS011;27370;42.764;23.432;2022-11-10T01:38:08;95.30;;;61.53;;
41685;SDS011;27370;42.764;23.432;2022-11-10T01:40:52;94.10;;;63.20;;
41685;SDS011;27370;42.764;23.432;2022-11-10T01:43:36;101.72;;;66.68;;
41685;SDS011;27370;42.764;23.432;2022-11-10T01:46:20;91.57;;;61.42;;
41685;SDS011;27370;42.764;23.432;2022-11-10T01:49:04;108.93;;;66.68;;
41685;SDS011;27370;42.764;23.432;2022-11-10T01:51:54;103.57;;;65.40;;
41685;SDS011;27370;42.764;23.432;2022-11-10T01:54:43;100.43;;;63.33;;
41685;SDS011;27370;42.764;23.432;2022-11-10T01:57:32;110.10;;;69.97;;
41685;SDS011;27370;42.764;23.432;2022-11-10T02:00:17;95.82;;;61.55;;
41685;SDS011;27370;42.764;23.432;2022-11-10T02:03:10;112.30;;;66.60;;
41685;SDS011;27370;42.764;23.432;2022-11-10T02:05:59;90.43;;;59.95;;
41685;SDS011;27370;42.764;23.432;2022-11-10T02:08:44;90.43;;;60.17;;
41685;SDS011;27370;42.764;23.432;2022-11-10T02:11:29;91.40;;;60.55;;
41685;SDS011;27370;42.764;23.432;2022-11-10T02:14:14;85.60;;;56.70;;
41685;SDS011;27370;42.764;23.432;2022-11-10T02:16:58;86.10;;;52.05;;
41685;SDS011;27370;42.764;23.432;2022-11-10T02:19:43;83.57;;;53.10;;
41685;SDS011;27370;42.764;23.432;2022-11-10T02:22:27;87.65;;;54.60;;
41685;SDS011;27370;42.764;23.432;2022-11-10T02:25:12;75.70;;;46.47;;
41685;SDS011;27370;42.764;23.432;2022-11-10T02:28:02;66.95;;;41.80;;
41685;SDS011;27370;42.764;23.432;2022-11-10T02:30:46;60.20;;;40.45;;
41685;SDS011;27370;42.764;23.432;2022-11-10T02:33:30;67.10;;;41.70;;
41685;SDS011;27370;42.764;23.432;2022-11-10T02:36:14;65.93;;;42.22;;
41685;SDS011;27370;42.764;23.432;2022-11-10T02:38:58;71.63;;;41.45;;
41685;SDS011;27370;42.764;23.432;2022-11-10T02:41:42;86.28;;;41.03;;
41685;SDS011;27370;42.764;23.432;2022-11-10T02:44:26;63.33;;;40.45;;
41685;SDS011;27370;42.764;23.432;2022-11-10T02:47:11;71.13;;;40.92;;
41685;SDS011;27370;42.764;23.432;2022-11-10T02:49:55;66.22;;;41.95;;
41685;SDS011;27370;42.764;23.432;2022-11-10T02:52:39;64.85;;;41.42;;
41685;SDS011;27370;42.764;23.432;2022-11-10T02:55:23;70.15;;;42.75;;
41685;SDS011;27370;42.764;23.432;2022-11-10T02:58:07;70.82;;;41.80;;
41685;SDS011;27370;42.764;23.432;2022-11-10T03:00:51;68.45;;;42.47;;
41685;SDS011;27370;42.764;23.432;2022-11-10T03:03:35;70.18;;;40.90;;
41685;SDS011;27370;42.764;23.432;2022-11-10T03:06:19;76.15;;;42.88;;
41685;SDS011;27370;42.764;23.432;2022-11-10T03:09:04;69.85;;;40.80;;
41685;SDS011;27370;42.764;23.432;2022-11-10T03:11:47;76.10;;;43.30;;
41685;SDS011;27370;42.764;23.432;2022-11-10T03:14:32;74.47;;;43.20;;
41685;SDS011;27370;42.764;23.432;2022-11-10T03:17:16;66.75;;;41.05;;
41685;SDS011;27370;42.764;23.432;2022-11-10T03:19:59;64.05;;;41.08;;
41685;SDS011;27370;42.764;23.432;2022-11-10T03:22:43;70.63;;;43.38;;
41685;SDS011;27370;42.764;23.432;2022-11-10T03:25:28;69.32;;;40.90;;
41685;SDS011;27370;42.764;23.432;2022-11-10T03:28:12;67.35;;;40.60;;
41685;SDS011;27370;42.764;23.432;2022-11-10T03:30:56;71.70;;;42.05;;
41685;SDS011;27370;42.764;23.432;2022-11-10T03:33:40;72.30;;;42.00;;
41685;SDS011;27370;42.764;23.432;2022-11-10T03:36:24;75.25;;;43.08;;
41685;SDS011;27370;42.764;23.432;2022-11-10T03:39:08;73.90;;;42.15;;
41685;SDS011;27370;42.764;23.432;2022-11-10T03:41:52;73.55;;;42.63;;
41685;SDS011;27370;42.764;23.432;2022-11-10T03:44:36;71.63;;;41.28;;
41685;SDS011;27370;42.764;23.432;2022-11-10T03:47:20;119.63;;;45.85;;
41685;SDS011;27370;42.764;23.432;2022-11-10T03:50:05;108.03;;;45.72;;
41685;SDS011;27370;42.764;23.432;2022-11-10T03:52:49;488.15;;;64.63;;
41685;SDS011;27370;42.764;23.432;2022-11-10T03:55:33;462.52;;;67.75;;
41685;SDS011;27370;42.764;23.432;2022-11-10T03:58:17;363.20;;;62.60;;
41685;SDS011;27370;42.764;23.432;2022-11-10T04:01:01;580.17;;;73.60;;
41685;SDS011;27370;42.764;23.432;2022-11-10T04:03:45;536.67;;;69.50;;
41685;SDS011;27370;42.764;23.432;2022-11-10T04:06:29;562.72;;;72.45;;
41685;SDS011;27370;42.764;23.432;2022-11-10T04:09:32;564.95;;;71.63;;
41685;SDS011;27370;42.764;23.432;2022-11-10T04:12:16;541.75;;;72.22;;
41685;SDS011;27370;42.764;23.432;2022-11-10T04:15:18;570.42;;;72.63;;
41685;SDS011;27370;42.764;23.432;2022-11-10T04:18:21;437.38;;;67.65;;
41685;SDS011;27370;42.764;23.432;2022-11-10T04:21:09;159.02;;;49.50;;
41685;SDS011;27370;42.764;23.432;2022-11-10T04:23:54;407.45;;;66.78;;
41685;SDS011;27370;42.764;23.432;2022-11-10T04:26:38;445.50;;;68.53;;
41685;SDS011;27370;42.764;23.432;2022-11-10T04:29:24;389.80;;;66.57;;
41685;SDS011;27370;42.764;23.432;2022-11-10T04:32:08;554.72;;;80.78;;
41685;SDS011;27370;42.764;23.432;2022-11-10T04:34:52;413.73;;;70.32;;
41685;SDS011;27370;42.764;23.432;2022-11-10T04:37:36;368.45;;;65.93;;
41685;SDS011;27370;42.764;23.432;2022-11-10T04:40:20;416.13;;;65.85;;
41685;SDS011;27370;42.764;23.432;2022-11-10T04:43:04;439.98;;;66.95;;
41685;SDS011;27370;42.764;23.432;2022-11-10T04:45:48;538.55;;;77.45;;
41685;SDS011;27370;42.764;23.432;2022-11-10T04:48:32;376.83;;;68.55;;
41685;SDS011;27370;42.764;23.432;2022-11-10T04:51:18;479.77;;;75.30;;
41685;SDS011;27370;42.764;23.432;2022-11-10T04:54:04;459.85;;;73.57;;
41685;SDS011;27370;42.764;23.432;2022-11-10T04:56:49;225.85;;;58.72;;
41685;SDS011;27370;42.764;23.432;2022-11-10T04:59:33;495.52;;;76.38;;
41685;SDS011;27370;42.764;23.432;2022-11-10T05:02:17;307.05;;;64.88;;
41685;SDS011;27370;42.764;23.432;2022-11-10T05:05:01;664.67;;;88.78;;
41685;SDS011;27370;42.764;23.432;2022-11-10T05:07:46;524.97;;;80.05;;
41685;SDS011;27370;42.764;23.432;2022-11-10T05:10:31;517.75;;;78.57;;
41685;SDS011;27370;42.764;23.432;2022-11-10T05:13:16;344.80;;;66.78;;
41685;SDS011;27370;42.764;23.432;2022-11-10T05:16:00;378.23;;;71.05;;
41685;SDS011;27370;42.764;23.432;2022-11-10T05:18:45;475.60;;;73.93;;
41685;SDS011;27370;42.764;23.432;2022-11-10T05:21:29;609.22;;;88.47;;
41685;SDS011;27370;42.764;23.432;2022-11-10T05:24:13;491.90;;;80.05;;
41685;SDS011;27370;42.764;23.432;2022-11-10T05:26:57;734.17;;;95.13;;
41685;SDS011;27370;42.764;23.432;2022-11-10T05:29:41;693.03;;;88.32;;
41685;SDS011;27370;42.764;23.432;2022-11-10T05:32:25;740.58;;;97.45;;
41685;SDS011;27370;42.764;23.432;2022-11-10T05:35:09;552.92;;;79.85;;
41685;SDS011;27370;42.764;23.432;2022-11-10T05:37:53;657.80;;;92.20;;
41685;SDS011;27370;42.764;23.432;2022-11-10T05:40:37;647.83;;;97.57;;
41685;SDS011;27370;42.764;23.432;2022-11-10T05:43:21;647.72;;;97.15;;
41685;SDS011;27370;42.764;23.432;2022-11-10T05:46:05;702.90;;;109.53;;
41685;SDS011;27370;42.764;23.432;2022-11-10T05:48:49;616.22;;;104.00;;
41685;SDS011;27370;42.764;23.432;2022-11-10T05:51:33;562.67;;;100.32;;
41685;SDS011;27370;42.764;23.432;2022-11-10T05:54:17;648.55;;;99.20;;
41685;SDS011;27370;42.764;23.432;2022-11-10T05:57:01;541.97;;;97.55;;
41685;SDS011;27370;42.764;23.432;2022-11-10T05:59:45;514.00;;;91.75;;
41685;SDS011;27370;42.764;23.432;2022-11-10T06:02:28;402.90;;;80.32;;
41685;SDS011;27370;42.764;23.432;2022-11-10T06:05:12;349.23;;;78.40;;
41685;SDS011;27370;42.764;23.432;2022-11-10T06:07:57;354.65;;;72.13;;
41685;SDS011;27370;42.764;23.432;2022-11-10T06:10:41;424.60;;;71.10;;
41685;SDS011;27370;42.764;23.432;2022-11-10T06:13:25;409.10;;;72.38;;
41685;SDS011;27370;42.764;23.432;2022-11-10T06:16:09;405.60;;;67.03;;
41685;SDS011;27370;42.764;23.432;2022-11-10T06:18:53;318.17;;;60.25;;
41685;SDS011;27370;42.764;23.432;2022-11-10T06:21:37;255.52;;;54.15;;
41685;SDS011;27370;42.764;23.432;2022-11-10T06:24:20;331.48;;;59.05;;
41685;SDS011;27370;42.764;23.432;2022-11-10T06:27:04;412.90;;;63.70;;
41685;SDS011;27370;42.764;23.432;2022-11-10T06:29:48;270.90;;;51.35;;
41685;SDS011;27370;42.764;23.432;2022-11-10T06:32:33;237.30;;;54.88;;
41685;SDS011;27370;42.764;23.432;2022-11-10T06:35:17;321.20;;;61.38;;
41685;SDS011;27370;42.764;23.432;2022-11-10T06:38:03;396.27;;;63.13;;
41685;SDS011;27370;42.764;23.432;2022-11-10T06:40:49;350.63;;;63.97;;
41685;SDS011;27370;42.764;23.432;2022-11-10T06:43:33;495.33;;;76.32;;
41685;SDS011;27370;42.764;23.432;2022-11-10T06:46:17;435.10;;;68.18;;
41685;SDS011;27370;42.764;23.432;2022-11-10T06:49:01;502.00;;;71.65;;
41685;SDS011;27370;42.764;23.432;2022-11-10T06:51:46;358.30;;;68.65;;
41685;SDS011;27370;42.764;23.432;2022-11-10T06:54:30;340.98;;;63.63;;
41685;SDS011;27370;42.764;23.432;2022-11-10T06:57:14;357.98;;;65.18;;
41685;SDS011;27370;42.764;23.432;2022-11-10T06:59:57;337.98;;;62.50;;
41685;SDS011;27370;42.764;23.432;2022-11-10T07:02:41;345.42;;;58.75;;
41685;SDS011;27370;42.764;23.432;2022-11-10T07:05:25;395.00;;;64.32;;
41685;SDS011;27370;42.764;23.432;2022-11-10T07:08:11;372.70;;;67.07;;
41685;SDS011;27370;42.764;23.432;2022-11-10T07:10:58;335.77;;;62.88;;
41685;SDS011;27370;42.764;23.432;2022-11-10T07:13:42;319.33;;;61.90;;
41685;SDS011;27370;42.764;23.432;2022-11-10T07:16:26;315.40;;;62.80;;
41685;SDS011;27370;42.764;23.432;2022-11-10T07:19:10;428.17;;;66.10;;
41685;SDS011;27370;42.764;23.432;2022-11-10T07:21:54;328.73;;;57.97;;
41685;SDS011;27370;42.764;23.432;2022-11-10T07:24:38;348.35;;;59.42;;
41685;SDS011;27370;42.764;23.432;2022-11-10T07:27:22;466.17;;;66.43;;
41685;SDS011;27370;42.764;23.432;2022-11-10T07:30:06;270.02;;;54.70;;
41685;SDS011;27370;42.764;23.432;2022-11-10T07:36:01;274.42;;;54.35;;
41685;SDS011;27370;42.764;23.432;2022-11-10T07:38:46;293.75;;;55.85;;
41685;SDS011;27370;42.764;23.432;2022-11-10T07:41:31;224.95;;;54.00;;
41685;SDS011;27370;42.764;23.432;2022-11-10T07:44:15;296.80;;;58.05;;
41685;SDS011;27370;42.764;23.432;2022-11-10T07:46:59;358.02;;;52.35;;
41685;SDS011;27370;42.764;23.432;2022-11-10T07:49:43;227.95;;;50.28;;
41685;SDS011;27370;42.764;23.432;2022-11-10T07:52:27;221.35;;;47.58;;
41685;SDS011;27370;42.764;23.432;2022-11-10T07:55:11;202.07;;;50.03;;
41685;SDS011;27370;42.764;23.432;2022-11-10T07:57:58;215.15;;;50.35;;
41685;SDS011;27370;42.764;23.432;2022-11-10T08:00:43;270.92;;;54.67;;
41685;SDS011;27370;42.764;23.432;2022-11-10T08:03:28;296.73;;;48.40;;
41685;SDS011;27370;42.764;23.432;2022-11-10T08:06:12;216.25;;;48.40;;
41685;SDS011;27370;42.764;23.432;2022-11-10T08:09:03;175.63;;;48.80;;
41685;SDS011;27370;42.764;23.432;2022-11-10T08:11:47;179.00;;;50.17;;
41685;SDS011;27370;42.764;23.432;2022-11-10T08:14:30;159.57;;;51.67;;
41685;SDS011;27370;42.764;23.432;2022-11-10T08:17:14;196.90;;;50.28;;
41685;SDS011;27370;42.764;23.432;2022-11-10T08:19:58;200.40;;;51.65;;
41685;SDS011;27370;42.764;23.432;2022-11-10T08:22:42;234.82;;;50.97;;
41685;SDS011;27370;42.764;23.432;2022-11-10T08:25:29;207.98;;;47.22;;
41685;SDS011;27370;42.764;23.432;2022-11-10T08:28:14;158.55;;;45.45;;
41685;SDS011;27370;42.764;23.432;2022-11-10T08:31:01;225.63;;;46.20;;
41685;SDS011;27370;42.764;23.432;2022-11-10T08:33:46;93.13;;;45.90;;
41685;SDS011;27370;42.764;23.432;2022-11-10T08:36:30;147.30;;;46.72;;
41685;SDS011;27370;42.764;23.432;2022-11-10T08:39:14;112.45;;;47.30;;
41685;SDS011;27370;42.764;23.432;2022-11-10T08:41:58;92.13;;;48.05;;
41685;SDS011;27370;42.764;23.432;2022-11-10T08:44:42;91.50;;;45.65;;
41685;SDS011;27370;42.764;23.432;2022-11-10T08:47:26;78.45;;;44.15;;
41685;SDS011;27370;42.764;23.432;2022-11-10T08:50:10;80.07;;;42.83;;
41685;SDS011;27370;42.764;23.432;2022-11-10T08:52:54;82.07;;;41.33;;
41685;SDS011;27370;42.764;23.432;2022-11-10T08:55:39;75.40;;;43.25;;
41685;SDS011;27370;42.764;23.432;2022-11-10T08:58:24;83.53;;;42.63;;
41685;SDS011;27370;42.764;23.432;2022-11-10T09:01:09;77.97;;;45.72;;
41685;SDS011;27370;42.764;23.432;2022-11-10T09:03:54;75.85;;;44.08;;
41685;SDS011;27370;42.764;23.432;2022-11-10T09:06:38;71.05;;;42.22;;
41685;SDS011;27370;42.764;23.432;2022-11-10T09:09:23;72.88;;;42.53;;
41685;SDS011;27370;42.764;23.432;2022-11-10T09:12:09;70.35;;;42.35;;
41685;SDS011;27370;42.764;23.432;2022-11-10T09:14:53;68.07;;;40.05;;
41685;SDS011;27370;42.764;23.432;2022-11-10T09:17:37;63.25;;;41.03;;
41685;SDS011;27370;42.764;23.432;2022-11-10T09:20:22;63.35;;;40.85;;
41685;SDS011;27370;42.764;23.432;2022-11-10T09:23:17;67.90;;;42.70;;
41685;SDS011;27370;42.764;23.432;2022-11-10T09:26:01;70.00;;;41.88;;
41685;SDS011;27370;42.764;23.432;2022-11-10T09:28:45;68.97;;;43.22;;
41685;SDS011;27370;42.764;23.432;2022-11-10T09:31:29;66.07;;;39.47;;
41685;SDS011;27370;42.764;23.432;2022-11-10T09:34:13;60.28;;;38.70;;
41685;SDS011;27370;42.764;23.432;2022-11-10T09:36:57;59.53;;;39.20;;
41685;SDS011;27370;42.764;23.432;2022-11-10T09:39:41;59.55;;;38.30;;
41685;SDS011;27370;42.764;23.432;2022-11-10T09:42:26;61.08;;;39.33;;
41685;SDS011;27370;42.764;23.432;2022-11-10T09:48:16;43.65;;;29.35;;
41685;SDS011;27370;42.764;23.432;2022-11-10T09:51:06;51.47;;;33.92;;
41685;SDS011;27370;42.764;23.432;2022-11-10T09:53:55;45.03;;;30.30;;
41685;SDS011;27370;42.764;23.432;2022-11-10T09:56:40;46.80;;;31.63;;
41685;SDS011;27370;42.764;23.432;2022-11-10T09:59:25;45.92;;;32.10;;
41685;SDS011;27370;42.764;23.432;2022-11-10T10:02:28;45.25;;;29.15;;
41685;SDS011;27370;42.764;23.432;2022-11-10T10:08:23;40.55;;;28.35;;
41685;SDS011;27370;42.764;23.432;2022-11-10T10:17:05;39.90;;;28.30;;
41685;SDS011;27370;42.764;23.432;2022-11-10T10:23:13;37.00;;;26.92;;
41685;SDS011;27370;42.764;23.432;2022-11-10T10:26:14;37.08;;;25.70;;
41685;SDS011;27370;42.764;23.432;2022-11-10T10:29:04;32.40;;;24.70;;
41685;SDS011;27370;42.764;23.432;2022-11-10T10:31:52;40.63;;;29.02;;
41685;SDS011;27370;42.764;23.432;2022-11-10T10:34:36;37.30;;;26.92;;
41685;SDS011;27370;42.764;23.432;2022-11-10T10:40:42;31.02;;;23.92;;
41685;SDS011;27370;42.764;23.432;2022-11-10T10:43:29;33.10;;;24.40;;
41685;SDS011;27370;42.764;23.432;2022-11-10T10:46:13;31.90;;;23.13;;
41685;SDS011;27370;42.764;23.432;2022-11-10T10:49:31;36.90;;;25.92;;
41685;SDS011;27370;42.764;23.432;2022-11-10T10:52:11;36.90;;;25.15;;
41685;SDS011;27370;42.764;23.432;2022-11-10T10:55:00;32.47;;;24.83;;
41685;SDS011;27370;42.764;23.432;2022-11-10T10:57:50;33.70;;;23.40;;
41685;SDS011;27370;42.764;23.432;2022-11-10T11:00:49;34.67;;;24.58;;
41685;SDS011;27370;42.764;23.432;2022-11-10T11:03:40;32.15;;;22.58;;
41685;SDS011;27370;42.764;23.432;2022-11-10T11:06:28;30.65;;;22.55;;
41685;SDS011;27370;42.764;23.432;2022-11-10T11:09:18;29.38;;;21.38;;
41685;SDS011;27370;42.764;23.432;2022-11-10T11:12:07;31.23;;;22.95;;
41685;SDS011;27370;42.764;23.432;2022-11-10T11:18:11;30.83;;;22.67;;
41685;SDS011;27370;42.764;23.432;2022-11-10T11:21:08;30.58;;;22.88;;
41685;SDS011;27370;42.764;23.432;2022-11-10T11:27:15;30.67;;;22.95;;
41685;SDS011;27370;42.764;23.432;2022-11-10T11:30:20;32.00;;;23.25;;
41685;SDS011;27370;42.764;23.432;2022-11-10T11:33:29;32.50;;;22.98;;
41685;SDS011;27370;42.764;23.432;2022-11-10T11:36:28;31.42;;;22.80;;
41685;SDS011;27370;42.764;23.432;2022-11-10T12:22:12;34.28;;;23.73;;
41685;SDS011;27370;42.764;23.432;2022-11-10T12:30:54;28.48;;;22.23;;
41685;SDS011;27370;42.764;23.432;2022-11-10T12:33:46;28.08;;;22.58;;
41685;SDS011;27370;42.764;23.432;2022-11-10T12:36:35;29.73;;;22.15;;
41685;SDS011;27370;42.764;23.432;2022-11-10T12:39:22;31.33;;;23.20;;
41685;SDS011;27370;42.764;23.432;2022-11-10T12:42:20;30.58;;;22.75;;
41685;SDS011;27370;42.764;23.432;2022-11-10T12:45:07;31.05;;;23.25;;
41685;SDS011;27370;42.764;23.432;2022-11-10T12:48:02;32.28;;;23.92;;
41685;SDS011;27370;42.764;23.432;2022-11-10T12:53:38;30.55;;;23.60;;
41685;SDS011;27370;42.764;23.432;2022-11-10T12:56:27;30.42;;;22.90;;
41685;SDS011;27370;42.764;23.432;2022-11-10T13:02:04;29.23;;;21.45;;
41685;SDS011;27370;42.764;23.432;2022-11-10T13:14:03;36.13;;;22.50;;
41685;SDS011;27370;42.764;23.432;2022-11-10T13:17:03;26.88;;;21.42;;
41685;SDS011;27370;42.764;23.432;2022-11-10T13:19:47;31.75;;;22.77;;
41685;SDS011;27370;42.764;23.432;2022-11-10T13:22:33;33.40;;;21.25;;
41685;SDS011;27370;42.764;23.432;2022-11-10T13:37:23;81.13;;;34.92;;
41685;SDS011;27370;42.764;23.432;2022-11-10T13:43:20;68.90;;;30.67;;
41685;SDS011;27370;42.764;23.432;2022-11-10T13:46:06;33.53;;;21.80;;
41685;SDS011;27370;42.764;23.432;2022-11-10T13:49:03;38.10;;;22.98;;
41685;SDS011;27370;42.764;23.432;2022-11-10T13:52:15;29.73;;;20.70;;
41685;SDS011;27370;42.764;23.432;2022-11-10T14:00:48;25.73;;;18.90;;
41685;SDS011;27370;42.764;23.432;2022-11-10T14:06:40;25.73;;;19.60;;
41685;SDS011;27370;42.764;23.432;2022-11-10T14:09:36;24.95;;;19.23;;
41685;SDS011;27370;42.764;23.432;2022-11-10T14:12:29;25.65;;;18.27;;
41685;SDS011;27370;42.764;23.432;2022-11-10T14:15:18;26.90;;;19.48;;
41685;SDS011;27370;42.764;23.432;2022-11-10T14:18:22;27.33;;;18.83;;
41685;SDS011;27370;42.764;23.432;2022-11-10T14:21:08;27.48;;;19.20;;
41685;SDS011;27370;42.764;23.432;2022-11-10T14:24:06;25.80;;;18.65;;
41685;SDS011;27370;42.764;23.432;2022-11-10T14:26:56;27.83;;;19.30;;
41685;SDS011;27370;42.764;23.432;2022-11-10T14:29:43;25.92;;;19.88;;
41685;SDS011;27370;42.764;23.432;2022-11-10T14:32:27;30.40;;;20.10;;
41685;SDS011;27370;42.764;23.432;2022-11-10T14:35:25;27.05;;;19.95;;
41685;SDS011;27370;42.764;23.432;2022-11-10T14:38:16;29.08;;;21.10;;
41685;SDS011;27370;42.764;23.432;2022-11-10T14:41:02;26.88;;;20.13;;
41685;SDS011;27370;42.764;23.432;2022-11-10T14:44:02;29.13;;;21.00;;
41685;SDS011;27370;42.764;23.432;2022-11-10T14:46:47;29.42;;;22.30;;
41685;SDS011;27370;42.764;23.432;2022-11-10T14:49:31;27.75;;;19.40;;
41685;SDS011;27370;42.764;23.432;2022-11-10T14:52:15;26.25;;;19.65;;
41685;SDS011;27370;42.764;23.432;2022-11-10T14:54:59;29.10;;;20.58;;
41685;SDS011;27370;42.764;23.432;2022-11-10T14:58:10;30.27;;;22.00;;
41685;SDS011;27370;42.764;23.432;2022-11-10T15:01:06;29.25;;;21.92;;
41685;SDS011;27370;42.764;23.432;2022-11-10T15:04:06;29.00;;;19.73;;
41685;SDS011;27370;42.764;23.432;2022-11-10T15:06:53;29.45;;;19.50;;
41685;SDS011;27370;42.764;23.432;2022-11-10T15:09:39;28.30;;;20.85;;
41685;SDS011;27370;42.764;23.432;2022-11-10T15:12:25;31.40;;;22.40;;
41685;SDS011;27370;42.764;23.432;2022-11-10T15:15:14;30.45;;;21.90;;
41685;SDS011;27370;42.764;23.432;2022-11-10T15:18:02;30.23;;;21.17;;
41685;SDS011;27370;42.764;23.432;2022-11-10T15:20:55;29.88;;;21.65;;
41685;SDS011;27370;42.764;23.432;2022-11-10T15:23:44;35.83;;;22.75;;
41685;SDS011;27370;42.764;23.432;2022-11-10T15:26:37;37.83;;;23.00;;
41685;SDS011;27370;42.764;23.432;2022-11-10T15:29:22;43.97;;;24.77;;
41685;SDS011;27370;42.764;23.432;2022-11-10T15:32:12;38.05;;;23.05;;
41685;SDS011;27370;42.764;23.432;2022-11-10T15:38:02;30.95;;;21.23;;
41685;SDS011;27370;42.764;23.432;2022-11-10T15:40:57;34.38;;;22.27;;
41685;SDS011;27370;42.764;23.432;2022-11-10T15:43:48;34.92;;;22.75;;
41685;SDS011;27370;42.764;23.432;2022-11-10T15:46:32;35.03;;;22.92;;
41685;SDS011;27370;42.764;23.432;2022-11-10T15:49:30;42.95;;;23.40;;
41685;SDS011;27370;42.764;23.432;2022-11-10T15:52:18;37.35;;;23.50;;
41685;SDS011;27370;42.764;23.432;2022-11-10T15:55:04;35.28;;;24.15;;
41685;SDS011;27370;42.764;23.432;2022-11-10T15:57:48;30.60;;;22.88;;
41685;SDS011;27370;42.764;23.432;2022-11-10T16:00:32;31.55;;;22.65;;
41685;SDS011;27370;42.764;23.432;2022-11-10T16:03:17;35.67;;;23.70;;
41685;SDS011;27370;42.764;23.432;2022-11-10T16:06:03;34.80;;;22.75;;
41685;SDS011;27370;42.764;23.432;2022-11-10T16:08:47;33.58;;;23.65;;
41685;SDS011;27370;42.764;23.432;2022-11-10T16:11:33;31.58;;;21.83;;
41685;SDS011;27370;42.764;23.432;2022-11-10T16:14:18;31.30;;;21.60;;
41685;SDS011;27370;42.764;23.432;2022-11-10T16:17:02;31.42;;;22.70;;
41685;SDS011;27370;42.764;23.432;2022-11-10T16:19:46;30.58;;;22.70;;
41685;SDS011;27370;42.764;23.432;2022-11-10T16:22:31;33.35;;;23.02;;
41685;SDS011;27370;42.764;23.432;2022-11-10T16:25:15;33.05;;;22.98;;
41685;SDS011;27370;42.764;23.432;2022-11-10T16:28:00;33.85;;;23.27;;
41685;SDS011;27370;42.764;23.432;2022-11-10T16:30:46;37.30;;;24.77;;
41685;SDS011;27370;42.764;23.432;2022-11-10T16:33:30;34.35;;;23.27;;
41685;SDS011;27370;42.764;23.432;2022-11-10T16:36:24;35.17;;;25.35;;
41685;SDS011;27370;42.764;23.432;2022-11-10T16:39:11;39.33;;;27.42;;
41685;SDS011;27370;42.764;23.432;2022-11-10T16:41:57;45.03;;;30.90;;
41685;SDS011;27370;42.764;23.432;2022-11-10T16:44:40;42.97;;;29.85;;
41685;SDS011;27370;42.764;23.432;2022-11-10T16:47:24;43.78;;;31.15;;
41685;SDS011;27370;42.764;23.432;2022-11-10T16:53:23;38.85;;;28.48;;
41685;SDS011;27370;42.764;23.432;2022-11-10T16:56:14;46.67;;;32.50;;
41685;SDS011;27370;42.764;23.432;2022-11-10T16:58:59;49.70;;;36.73;;
41685;SDS011;27370;42.764;23.432;2022-11-10T17:01:43;56.00;;;38.85;;
41685;SDS011;27370;42.764;23.432;2022-11-10T17:04:29;51.45;;;37.42;;
41685;SDS011;27370;42.764;23.432;2022-11-10T17:07:13;44.92;;;32.67;;
41685;SDS011;27370;42.764;23.432;2022-11-10T17:09:58;45.47;;;30.92;;
41685;SDS011;27370;42.764;23.432;2022-11-10T17:12:43;48.63;;;34.85;;
41685;SDS011;27370;42.764;23.432;2022-11-10T17:15:27;50.70;;;36.22;;
41685;SDS011;27370;42.764;23.432;2022-11-10T17:18:12;73.22;;;48.88;;
41685;SDS011;27370;42.764;23.432;2022-11-10T17:20:59;55.22;;;37.92;;
41685;SDS011;27370;42.764;23.432;2022-11-10T17:23:44;71.35;;;45.70;;
41685;SDS011;27370;42.764;23.432;2022-11-10T17:26:28;57.80;;;39.05;;
41685;SDS011;27370;42.764;23.432;2022-11-10T17:29:20;67.43;;;45.63;;
41685;SDS011;27370;42.764;23.432;2022-11-10T17:32:04;81.18;;;49.05;;
41685;SDS011;27370;42.764;23.432;2022-11-10T17:34:48;86.53;;;53.92;;
41685;SDS011;27370;42.764;23.432;2022-11-10T17:37:32;105.57;;;58.15;;
41685;SDS011;27370;42.764;23.432;2022-11-10T17:40:18;115.03;;;75.82;;
41685;SDS011;27370;42.764;23.432;2022-11-10T17:43:04;113.65;;;73.10;;
41685;SDS011;27370;42.764;23.432;2022-11-10T17:45:48;107.50;;;80.78;;
41685;SDS011;27370;42.764;23.432;2022-11-10T17:48:32;99.03;;;70.93;;
41685;SDS011;27370;42.764;23.432;2022-11-10T17:51:17;100.95;;;71.38;;
41685;SDS011;27370;42.764;23.432;2022-11-10T17:54:03;82.65;;;55.45;;
41685;SDS011;27370;42.764;23.432;2022-11-10T17:56:48;74.75;;;50.13;;